sensor_id;sensor_type;location;lat;lon;timestamp;P1;durP1;ratioP1;P2;durP2;ratioP2
51190;SDS011;37253;48.736;9.294;2023-01-01T00:00:58;62.22;;;42.50;;
51190;SDS011;37253;48.736;9.294;2023-01-01T00:02:58;58.30;;;42.78;;
51190;SDS011;37253;48.736;9.294;2023-01-01T00:04:58;61.83;;;44.65;;
51190;SDS011;37253;48.736;9.294;2023-01-01T00:06:59;63.80;;;45.50;;
51190;SDS011;37253;48.736;9.294;2023-01-01T00:09:00;66.53;;;45.00;;
51190;SDS011;37253;48.736;9.294;2023-01-01T00:11:19;60.47;;;45.85;;
51190;SDS011;37253;48.736;9.294;2023-01-01T00:13:19;63.67;;;48.10;;
51190;SDS011;37253;48.736;9.294;2023-01-01T00:15:19;71.22;;;48.58;;
51190;SDS011;37253;48.736;9.294;2023-01-01T00:17:20;69.55;;;49.72;;
51190;SDS011;37253;48.736;9.294;2023-01-01T00:19:20;73.28;;;50.30;;
51190;SDS011;37253;48.736;9.294;2023-01-01T00:21:20;74.03;;;53.20;;
51190;SDS011;37253;48.736;9.294;2023-01-01T00:23:21;75.18;;;53.97;;
51190;SDS011;37253;48.736;9.294;2023-01-01T00:25:21;73.88;;;53.80;;
51190;SDS011;37253;48.736;9.294;2023-01-01T00:27:22;77.85;;;55.33;;
51190;SDS011;37253;48.736;9.294;2023-01-01T00:29:22;78.45;;;57.42;;
51190;SDS011;37253;48.736;9.294;2023-01-01T00:31:22;78.07;;;57.03;;
51190;SDS011;37253;48.736;9.294;2023-01-01T00:33:23;81.15;;;59.33;;
51190;SDS011;37253;48.736;9.294;2023-01-01T00:35:24;80.38;;;58.42;;
51190;SDS011;37253;48.736;9.294;2023-01-01T00:37:24;85.70;;;60.35;;
51190;SDS011;37253;48.736;9.294;2023-01-01T00:39:26;84.20;;;61.90;;
51190;SDS011;37253;48.736;9.294;2023-01-01T00:41:27;86.68;;;62.83;;
51190;SDS011;37253;48.736;9.294;2023-01-01T00:43:27;86.50;;;65.38;;
51190;SDS011;37253;48.736;9.294;2023-01-01T00:45:27;87.57;;;62.95;;
51190;SDS011;37253;48.736;9.294;2023-01-01T00:47:28;91.32;;;67.30;;
51190;SDS011;37253;48.736;9.294;2023-01-01T00:49:28;89.18;;;67.30;;
51190;SDS011;37253;48.736;9.294;2023-01-01T00:51:28;91.40;;;65.60;;
51190;SDS011;37253;48.736;9.294;2023-01-01T00:53:29;92.97;;;68.07;;
51190;SDS011;37253;48.736;9.294;2023-01-01T00:55:29;92.60;;;67.38;;
51190;SDS011;37253;48.736;9.294;2023-01-01T00:57:30;90.30;;;66.88;;
51190;SDS011;37253;48.736;9.294;2023-01-01T00:59:30;93.50;;;70.82;;
51190;SDS011;37253;48.736;9.294;2023-01-01T01:01:30;95.80;;;70.93;;
51190;SDS011;37253;48.736;9.294;2023-01-01T01:03:32;96.68;;;69.75;;
51190;SDS011;37253;48.736;9.294;2023-01-01T01:05:32;90.50;;;68.65;;
51190;SDS011;37253;48.736;9.294;2023-01-01T01:07:36;93.82;;;70.63;;
51190;SDS011;37253;48.736;9.294;2023-01-01T01:09:37;92.93;;;70.35;;
51190;SDS011;37253;48.736;9.294;2023-01-01T01:11:37;92.75;;;72.45;;
51190;SDS011;37253;48.736;9.294;2023-01-01T01:13:38;99.68;;;72.03;;
51190;SDS011;37253;48.736;9.294;2023-01-01T01:15:39;95.45;;;72.63;;
51190;SDS011;37253;48.736;9.294;2023-01-01T01:17:40;97.40;;;73.28;;
51190;SDS011;37253;48.736;9.294;2023-01-01T01:19:40;100.05;;;73.53;;
51190;SDS011;37253;48.736;9.294;2023-01-01T01:21:40;102.38;;;74.93;;
51190;SDS011;37253;48.736;9.294;2023-01-01T01:23:41;96.85;;;72.25;;
51190;SDS011;37253;48.736;9.294;2023-01-01T01:25:41;99.53;;;75.47;;
51190;SDS011;37253;48.736;9.294;2023-01-01T01:27:42;97.75;;;75.07;;
51190;SDS011;37253;48.736;9.294;2023-01-01T01:29:42;97.82;;;76.97;;
51190;SDS011;37253;48.736;9.294;2023-01-01T01:31:42;95.22;;;74.70;;
51190;SDS011;37253;48.736;9.294;2023-01-01T01:33:43;94.80;;;74.20;;
51190;SDS011;37253;48.736;9.294;2023-01-01T01:35:49;94.72;;;75.28;;
51190;SDS011;37253;48.736;9.294;2023-01-01T01:37:50;99.63;;;74.82;;
51190;SDS011;37253;48.736;9.294;2023-01-01T01:39:51;99.57;;;75.95;;
51190;SDS011;37253;48.736;9.294;2023-01-01T01:41:51;103.88;;;77.60;;
51190;SDS011;37253;48.736;9.294;2023-01-01T01:44:02;100.25;;;75.93;;
51190;SDS011;37253;48.736;9.294;2023-01-01T01:48:12;99.00;;;76.38;;
51190;SDS011;37253;48.736;9.294;2023-01-01T01:50:20;103.03;;;78.43;;
51190;SDS011;37253;48.736;9.294;2023-01-01T01:52:23;101.93;;;77.25;;
51190;SDS011;37253;48.736;9.294;2023-01-01T01:54:24;99.28;;;75.80;;
51190;SDS011;37253;48.736;9.294;2023-01-01T01:56:28;105.10;;;80.07;;
51190;SDS011;37253;48.736;9.294;2023-01-01T01:58:31;96.13;;;78.40;;
51190;SDS011;37253;48.736;9.294;2023-01-01T02:00:31;103.90;;;78.40;;
51190;SDS011;37253;48.736;9.294;2023-01-01T02:02:36;92.10;;;75.97;;
51190;SDS011;37253;48.736;9.294;2023-01-01T02:04:39;95.47;;;75.78;;
51190;SDS011;37253;48.736;9.294;2023-01-01T02:06:40;99.43;;;77.18;;
51190;SDS011;37253;48.736;9.294;2023-01-01T02:08:41;95.28;;;76.22;;
51190;SDS011;37253;48.736;9.294;2023-01-01T02:10:41;100.47;;;77.38;;
51190;SDS011;37253;48.736;9.294;2023-01-01T02:12:42;95.90;;;74.93;;
51190;SDS011;37253;48.736;9.294;2023-01-01T02:14:42;99.90;;;75.57;;
51190;SDS011;37253;48.736;9.294;2023-01-01T02:18:50;99.68;;;76.25;;
51190;SDS011;37253;48.736;9.294;2023-01-01T02:23:09;99.05;;;75.70;;
51190;SDS011;37253;48.736;9.294;2023-01-01T02:29:52;92.80;;;73.20;;
51190;SDS011;37253;48.736;9.294;2023-01-01T02:32:02;98.97;;;74.45;;
51190;SDS011;37253;48.736;9.294;2023-01-01T02:34:06;96.63;;;75.55;;
51190;SDS011;37253;48.736;9.294;2023-01-01T02:36:08;94.60;;;75.43;;
51190;SDS011;37253;48.736;9.294;2023-01-01T02:38:12;89.20;;;71.68;;
51190;SDS011;37253;48.736;9.294;2023-01-01T02:40:15;93.82;;;71.75;;
51190;SDS011;37253;48.736;9.294;2023-01-01T02:42:17;90.32;;;72.53;;
51190;SDS011;37253;48.736;9.294;2023-01-01T02:44:18;88.63;;;70.88;;
51190;SDS011;37253;48.736;9.294;2023-01-01T02:46:21;92.10;;;71.82;;
51190;SDS011;37253;48.736;9.294;2023-01-01T02:48:41;91.28;;;71.93;;
51190;SDS011;37253;48.736;9.294;2023-01-01T02:50:41;92.78;;;71.13;;
51190;SDS011;37253;48.736;9.294;2023-01-01T02:52:49;86.10;;;69.03;;
51190;SDS011;37253;48.736;9.294;2023-01-01T02:55:02;92.28;;;71.57;;
51190;SDS011;37253;48.736;9.294;2023-01-01T03:05:09;88.68;;;67.75;;
51190;SDS011;37253;48.736;9.294;2023-01-01T03:12:11;82.35;;;64.03;;
51190;SDS011;37253;48.736;9.294;2023-01-01T03:14:41;81.05;;;63.13;;
51190;SDS011;37253;48.736;9.294;2023-01-01T03:16:55;80.07;;;64.70;;
51190;SDS011;37253;48.736;9.294;2023-01-01T03:19:13;78.63;;;61.80;;
51190;SDS011;37253;48.736;9.294;2023-01-01T03:21:19;78.95;;;63.13;;
51190;SDS011;37253;48.736;9.294;2023-01-01T03:23:23;81.05;;;62.53;;
51190;SDS011;37253;48.736;9.294;2023-01-01T03:25:27;74.88;;;60.42;;
51190;SDS011;37253;48.736;9.294;2023-01-01T03:27:31;76.00;;;59.35;;
51190;SDS011;37253;48.736;9.294;2023-01-01T03:29:34;71.78;;;58.22;;
51190;SDS011;37253;48.736;9.294;2023-01-01T03:31:39;72.53;;;58.17;;
51190;SDS011;37253;48.736;9.294;2023-01-01T03:33:43;73.15;;;57.53;;
51190;SDS011;37253;48.736;9.294;2023-01-01T03:37:48;71.57;;;56.85;;
51190;SDS011;37253;48.736;9.294;2023-01-01T03:39:50;72.45;;;55.58;;
51190;SDS011;37253;48.736;9.294;2023-01-01T03:44:16;71.07;;;56.13;;
51190;SDS011;37253;48.736;9.294;2023-01-01T03:46:45;71.32;;;54.63;;
51190;SDS011;37253;48.736;9.294;2023-01-01T03:48:45;69.30;;;54.75;;
51190;SDS011;37253;48.736;9.294;2023-01-01T03:53:07;68.13;;;53.17;;
51190;SDS011;37253;48.736;9.294;2023-01-01T03:55:18;66.47;;;52.25;;
51190;SDS011;37253;48.736;9.294;2023-01-01T03:59:23;62.42;;;50.33;;
51190;SDS011;37253;48.736;9.294;2023-01-01T04:01:31;62.13;;;50.80;;
51190;SDS011;37253;48.736;9.294;2023-01-01T04:03:33;62.58;;;50.58;;
51190;SDS011;37253;48.736;9.294;2023-01-01T04:05:36;58.65;;;49.00;;
51190;SDS011;37253;48.736;9.294;2023-01-01T04:07:38;62.83;;;49.20;;
51190;SDS011;37253;48.736;9.294;2023-01-01T04:09:39;59.83;;;47.97;;
51190;SDS011;37253;48.736;9.294;2023-01-01T04:11:41;55.97;;;45.13;;
51190;SDS011;37253;48.736;9.294;2023-01-01T04:14:03;56.58;;;47.67;;
51190;SDS011;37253;48.736;9.294;2023-01-01T04:16:03;57.25;;;46.65;;
51190;SDS011;37253;48.736;9.294;2023-01-01T04:18:04;57.08;;;47.00;;
51190;SDS011;37253;48.736;9.294;2023-01-01T04:20:05;57.42;;;45.28;;
51190;SDS011;37253;48.736;9.294;2023-01-01T04:22:06;53.65;;;45.03;;
51190;SDS011;37253;48.736;9.294;2023-01-01T04:24:07;54.65;;;43.85;;
51190;SDS011;37253;48.736;9.294;2023-01-01T04:26:14;52.70;;;43.88;;
51190;SDS011;37253;48.736;9.294;2023-01-01T04:28:14;55.17;;;42.78;;
51190;SDS011;37253;48.736;9.294;2023-01-01T04:30:14;50.80;;;42.42;;
51190;SDS011;37253;48.736;9.294;2023-01-01T04:32:15;52.53;;;42.67;;
51190;SDS011;37253;48.736;9.294;2023-01-01T04:34:15;53.67;;;42.38;;
51190;SDS011;37253;48.736;9.294;2023-01-01T04:36:16;48.80;;;40.75;;
51190;SDS011;37253;48.736;9.294;2023-01-01T04:38:16;50.10;;;41.63;;
51190;SDS011;37253;48.736;9.294;2023-01-01T04:40:16;48.38;;;40.03;;
51190;SDS011;37253;48.736;9.294;2023-01-01T04:42:17;51.50;;;40.03;;
51190;SDS011;37253;48.736;9.294;2023-01-01T04:44:18;50.05;;;40.30;;
51190;SDS011;37253;48.736;9.294;2023-01-01T04:46:19;45.72;;;38.60;;
51190;SDS011;37253;48.736;9.294;2023-01-01T04:48:19;44.92;;;37.88;;
51190;SDS011;37253;48.736;9.294;2023-01-01T04:50:20;44.97;;;38.05;;
51190;SDS011;37253;48.736;9.294;2023-01-01T04:52:20;46.42;;;38.50;;
51190;SDS011;37253;48.736;9.294;2023-01-01T04:54:21;44.28;;;37.50;;
51190;SDS011;37253;48.736;9.294;2023-01-01T04:56:21;43.22;;;37.22;;
51190;SDS011;37253;48.736;9.294;2023-01-01T04:58:22;45.60;;;37.40;;
51190;SDS011;37253;48.736;9.294;2023-01-01T05:00:22;45.05;;;36.80;;
51190;SDS011;37253;48.736;9.294;2023-01-01T05:02:23;41.50;;;35.10;;
51190;SDS011;37253;48.736;9.294;2023-01-01T05:04:23;45.60;;;35.83;;
51190;SDS011;37253;48.736;9.294;2023-01-01T05:06:24;42.70;;;34.60;;
51190;SDS011;37253;48.736;9.294;2023-01-01T05:08:24;41.60;;;35.10;;
51190;SDS011;37253;48.736;9.294;2023-01-01T05:10:25;45.45;;;33.80;;
51190;SDS011;37253;48.736;9.294;2023-01-01T05:12:25;42.50;;;35.47;;
51190;SDS011;37253;48.736;9.294;2023-01-01T05:14:25;43.90;;;34.65;;
51190;SDS011;37253;48.736;9.294;2023-01-01T05:16:27;39.80;;;32.42;;
51190;SDS011;37253;48.736;9.294;2023-01-01T05:20:30;41.05;;;32.42;;
51190;SDS011;37253;48.736;9.294;2023-01-01T05:22:30;40.47;;;32.75;;
51190;SDS011;37253;48.736;9.294;2023-01-01T05:24:30;38.40;;;32.63;;
51190;SDS011;37253;48.736;9.294;2023-01-01T05:26:39;38.25;;;31.77;;
51190;SDS011;37253;48.736;9.294;2023-01-01T05:28:41;37.60;;;31.23;;
51190;SDS011;37253;48.736;9.294;2023-01-01T05:30:41;36.95;;;30.42;;
51190;SDS011;37253;48.736;9.294;2023-01-01T05:32:42;38.03;;;31.42;;
51190;SDS011;37253;48.736;9.294;2023-01-01T05:34:42;39.53;;;30.10;;
51190;SDS011;37253;48.736;9.294;2023-01-01T05:36:42;36.55;;;31.23;;
51190;SDS011;37253;48.736;9.294;2023-01-01T05:38:43;34.80;;;29.45;;
51190;SDS011;37253;48.736;9.294;2023-01-01T05:40:43;35.42;;;30.30;;
51190;SDS011;37253;48.736;9.294;2023-01-01T05:42:45;35.38;;;29.67;;
51190;SDS011;37253;48.736;9.294;2023-01-01T05:44:46;38.67;;;29.13;;
51190;SDS011;37253;48.736;9.294;2023-01-01T05:46:46;35.17;;;29.23;;
51190;SDS011;37253;48.736;9.294;2023-01-01T05:48:47;34.45;;;29.35;;
51190;SDS011;37253;48.736;9.294;2023-01-01T05:50:47;32.92;;;27.92;;
51190;SDS011;37253;48.736;9.294;2023-01-01T05:52:47;34.42;;;28.80;;
51190;SDS011;37253;48.736;9.294;2023-01-01T05:54:48;35.80;;;28.83;;
51190;SDS011;37253;48.736;9.294;2023-01-01T05:56:48;32.70;;;27.95;;
51190;SDS011;37253;48.736;9.294;2023-01-01T05:58:48;32.08;;;27.55;;
51190;SDS011;37253;48.736;9.294;2023-01-01T06:00:49;32.40;;;27.58;;
51190;SDS011;37253;48.736;9.294;2023-01-01T06:02:49;33.10;;;27.23;;
51190;SDS011;37253;48.736;9.294;2023-01-01T06:04:50;30.88;;;26.75;;
51190;SDS011;37253;48.736;9.294;2023-01-01T06:06:50;33.83;;;26.70;;
51190;SDS011;37253;48.736;9.294;2023-01-01T06:08:51;30.98;;;27.05;;
51190;SDS011;37253;48.736;9.294;2023-01-01T06:10:56;33.42;;;26.67;;
51190;SDS011;37253;48.736;9.294;2023-01-01T06:12:57;33.15;;;27.08;;
51190;SDS011;37253;48.736;9.294;2023-01-01T06:14:58;30.52;;;26.45;;
51190;SDS011;37253;48.736;9.294;2023-01-01T06:16:58;33.13;;;26.42;;
51190;SDS011;37253;48.736;9.294;2023-01-01T06:18:58;28.30;;;25.30;;
51190;SDS011;37253;48.736;9.294;2023-01-01T06:21:12;30.30;;;25.17;;
51190;SDS011;37253;48.736;9.294;2023-01-01T06:23:14;29.88;;;24.33;;
51190;SDS011;37253;48.736;9.294;2023-01-01T06:25:14;31.83;;;25.10;;
51190;SDS011;37253;48.736;9.294;2023-01-01T06:27:15;31.88;;;24.92;;
51190;SDS011;37253;48.736;9.294;2023-01-01T06:29:15;28.67;;;24.33;;
51190;SDS011;37253;48.736;9.294;2023-01-01T06:31:17;29.70;;;24.30;;
51190;SDS011;37253;48.736;9.294;2023-01-01T06:33:20;29.38;;;24.23;;
51190;SDS011;37253;48.736;9.294;2023-01-01T06:35:21;30.75;;;25.02;;
51190;SDS011;37253;48.736;9.294;2023-01-01T06:37:21;30.27;;;24.13;;
51190;SDS011;37253;48.736;9.294;2023-01-01T06:39:21;28.10;;;23.65;;
51190;SDS011;37253;48.736;9.294;2023-01-01T06:41:22;29.60;;;23.80;;
51190;SDS011;37253;48.736;9.294;2023-01-01T06:43:23;28.20;;;23.58;;
51190;SDS011;37253;48.736;9.294;2023-01-01T06:45:24;27.35;;;22.33;;
51190;SDS011;37253;48.736;9.294;2023-01-01T06:47:24;28.45;;;22.23;;
51190;SDS011;37253;48.736;9.294;2023-01-01T06:49:25;27.55;;;23.00;;
51190;SDS011;37253;48.736;9.294;2023-01-01T06:51:26;25.15;;;21.92;;
51190;SDS011;37253;48.736;9.294;2023-01-01T06:53:27;28.17;;;22.93;;
51190;SDS011;37253;48.736;9.294;2023-01-01T06:55:28;25.98;;;21.70;;
51190;SDS011;37253;48.736;9.294;2023-01-01T06:57:28;25.55;;;21.60;;
51190;SDS011;37253;48.736;9.294;2023-01-01T06:59:29;26.48;;;22.25;;
51190;SDS011;37253;48.736;9.294;2023-01-01T07:01:30;25.38;;;21.05;;
51190;SDS011;37253;48.736;9.294;2023-01-01T07:03:31;24.88;;;21.00;;
51190;SDS011;37253;48.736;9.294;2023-01-01T07:05:33;25.45;;;21.45;;
51190;SDS011;37253;48.736;9.294;2023-01-01T07:07:33;24.30;;;20.92;;
51190;SDS011;37253;48.736;9.294;2023-01-01T07:09:33;27.58;;;21.85;;
51190;SDS011;37253;48.736;9.294;2023-01-01T07:11:34;22.95;;;19.35;;
51190;SDS011;37253;48.736;9.294;2023-01-01T07:13:34;24.08;;;20.05;;
51190;SDS011;37253;48.736;9.294;2023-01-01T07:15:35;23.85;;;19.73;;
51190;SDS011;37253;48.736;9.294;2023-01-01T07:17:35;23.60;;;19.98;;
51190;SDS011;37253;48.736;9.294;2023-01-01T07:19:35;23.90;;;19.85;;
51190;SDS011;37253;48.736;9.294;2023-01-01T07:21:45;25.70;;;20.30;;
51190;SDS011;37253;48.736;9.294;2023-01-01T07:23:51;22.67;;;19.48;;
51190;SDS011;37253;48.736;9.294;2023-01-01T07:25:52;21.98;;;19.15;;
51190;SDS011;37253;48.736;9.294;2023-01-01T07:27:52;22.00;;;19.30;;
51190;SDS011;37253;48.736;9.294;2023-01-01T07:29:53;22.20;;;19.02;;
51190;SDS011;37253;48.736;9.294;2023-01-01T07:31:53;21.05;;;17.85;;
51190;SDS011;37253;48.736;9.294;2023-01-01T07:33:53;24.17;;;18.92;;
51190;SDS011;37253;48.736;9.294;2023-01-01T07:35:54;21.15;;;18.85;;
51190;SDS011;37253;48.736;9.294;2023-01-01T07:37:54;20.75;;;18.13;;
51190;SDS011;37253;48.736;9.294;2023-01-01T07:39:54;21.13;;;18.42;;
51190;SDS011;37253;48.736;9.294;2023-01-01T07:41:54;21.75;;;17.75;;
51190;SDS011;37253;48.736;9.294;2023-01-01T07:43:55;24.85;;;17.33;;
51190;SDS011;37253;48.736;9.294;2023-01-01T07:45:56;22.13;;;17.13;;
51190;SDS011;37253;48.736;9.294;2023-01-01T07:47:57;23.55;;;17.88;;
51190;SDS011;37253;48.736;9.294;2023-01-01T07:49:58;20.50;;;16.83;;
51190;SDS011;37253;48.736;9.294;2023-01-01T07:51:58;20.35;;;17.30;;
51190;SDS011;37253;48.736;9.294;2023-01-01T07:53:58;23.02;;;16.85;;
51190;SDS011;37253;48.736;9.294;2023-01-01T07:55:59;20.10;;;17.17;;
51190;SDS011;37253;48.736;9.294;2023-01-01T07:57:59;20.77;;;17.42;;
51190;SDS011;37253;48.736;9.294;2023-01-01T08:00:00;18.83;;;16.30;;
51190;SDS011;37253;48.736;9.294;2023-01-01T08:02:01;22.48;;;18.00;;
51190;SDS011;37253;48.736;9.294;2023-01-01T08:04:01;19.70;;;17.15;;
51190;SDS011;37253;48.736;9.294;2023-01-01T08:06:20;20.50;;;17.25;;
51190;SDS011;37253;48.736;9.294;2023-01-01T08:08:21;18.02;;;16.02;;
51190;SDS011;37253;48.736;9.294;2023-01-01T08:10:21;20.02;;;16.48;;
51190;SDS011;37253;48.736;9.294;2023-01-01T08:12:21;18.52;;;15.98;;
51190;SDS011;37253;48.736;9.294;2023-01-01T08:14:22;19.25;;;16.42;;
51190;SDS011;37253;48.736;9.294;2023-01-01T08:16:22;19.88;;;16.30;;
51190;SDS011;37253;48.736;9.294;2023-01-01T08:18:22;19.33;;;16.65;;
51190;SDS011;37253;48.736;9.294;2023-01-01T08:20:23;18.92;;;16.35;;
51190;SDS011;37253;48.736;9.294;2023-01-01T08:22:23;17.75;;;15.85;;
51190;SDS011;37253;48.736;9.294;2023-01-01T08:24:24;18.92;;;16.67;;
51190;SDS011;37253;48.736;9.294;2023-01-01T08:26:31;19.30;;;16.40;;
51190;SDS011;37253;48.736;9.294;2023-01-01T08:28:32;18.35;;;16.33;;
51190;SDS011;37253;48.736;9.294;2023-01-01T08:30:32;20.30;;;16.65;;
51190;SDS011;37253;48.736;9.294;2023-01-01T08:32:33;19.67;;;16.73;;
51190;SDS011;37253;48.736;9.294;2023-01-01T08:34:33;18.30;;;15.88;;
51190;SDS011;37253;48.736;9.294;2023-01-01T08:36:33;21.45;;;17.55;;
51190;SDS011;37253;48.736;9.294;2023-01-01T08:38:34;20.77;;;16.05;;
51190;SDS011;37253;48.736;9.294;2023-01-01T08:40:34;19.75;;;16.67;;
51190;SDS011;37253;48.736;9.294;2023-01-01T08:42:35;21.65;;;16.33;;
51190;SDS011;37253;48.736;9.294;2023-01-01T08:44:35;18.48;;;16.48;;
51190;SDS011;37253;48.736;9.294;2023-01-01T08:46:36;19.95;;;17.08;;
51190;SDS011;37253;48.736;9.294;2023-01-01T08:48:36;18.75;;;15.95;;
51190;SDS011;37253;48.736;9.294;2023-01-01T08:50:36;18.25;;;15.40;;
51190;SDS011;37253;48.736;9.294;2023-01-01T08:52:37;18.48;;;15.98;;
51190;SDS011;37253;48.736;9.294;2023-01-01T08:54:37;20.35;;;16.13;;
51190;SDS011;37253;48.736;9.294;2023-01-01T08:56:37;19.02;;;16.30;;
51190;SDS011;37253;48.736;9.294;2023-01-01T08:58:38;19.13;;;16.20;;
51190;SDS011;37253;48.736;9.294;2023-01-01T09:00:39;17.10;;;15.18;;
51190;SDS011;37253;48.736;9.294;2023-01-01T09:02:39;18.80;;;16.05;;
51190;SDS011;37253;48.736;9.294;2023-01-01T09:04:39;17.63;;;15.73;;
51190;SDS011;37253;48.736;9.294;2023-01-01T09:06:40;19.13;;;15.15;;
51190;SDS011;37253;48.736;9.294;2023-01-01T09:08:40;17.85;;;15.00;;
51190;SDS011;37253;48.736;9.294;2023-01-01T09:10:40;17.30;;;15.32;;
51190;SDS011;37253;48.736;9.294;2023-01-01T09:12:42;17.98;;;15.02;;
51190;SDS011;37253;48.736;9.294;2023-01-01T09:14:45;18.52;;;14.50;;
51190;SDS011;37253;48.736;9.294;2023-01-01T09:18:46;17.27;;;14.60;;
51190;SDS011;37253;48.736;9.294;2023-01-01T09:20:46;18.05;;;14.82;;
51190;SDS011;37253;48.736;9.294;2023-01-01T09:22:47;17.92;;;14.68;;
51190;SDS011;37253;48.736;9.294;2023-01-01T09:24:47;17.25;;;14.65;;
51190;SDS011;37253;48.736;9.294;2023-01-01T09:26:47;20.25;;;15.23;;
51190;SDS011;37253;48.736;9.294;2023-01-01T09:28:48;17.77;;;14.60;;
51190;SDS011;37253;48.736;9.294;2023-01-01T09:30:48;16.50;;;14.05;;
51190;SDS011;37253;48.736;9.294;2023-01-01T09:32:48;16.92;;;14.65;;
51190;SDS011;37253;48.736;9.294;2023-01-01T09:34:49;17.27;;;15.20;;
51190;SDS011;37253;48.736;9.294;2023-01-01T09:36:50;17.13;;;14.23;;
51190;SDS011;37253;48.736;9.294;2023-01-01T09:38:50;17.88;;;14.65;;
51190;SDS011;37253;48.736;9.294;2023-01-01T09:40:54;18.98;;;15.13;;
51190;SDS011;37253;48.736;9.294;2023-01-01T09:45:28;15.82;;;14.13;;
51190;SDS011;37253;48.736;9.294;2023-01-01T09:47:32;18.67;;;15.30;;
51190;SDS011;37253;48.736;9.294;2023-01-01T09:49:40;19.60;;;14.80;;
51190;SDS011;37253;48.736;9.294;2023-01-01T09:51:42;17.55;;;15.27;;
51190;SDS011;37253;48.736;9.294;2023-01-01T09:55:55;15.65;;;13.93;;
51190;SDS011;37253;48.736;9.294;2023-01-01T09:59:57;16.88;;;14.38;;
51190;SDS011;37253;48.736;9.294;2023-01-01T10:06:56;18.55;;;14.38;;
51190;SDS011;37253;48.736;9.294;2023-01-01T10:09:31;16.85;;;14.80;;
51190;SDS011;37253;48.736;9.294;2023-01-01T10:12:05;19.15;;;14.65;;
51190;SDS011;37253;48.736;9.294;2023-01-01T10:14:13;17.60;;;14.88;;
51190;SDS011;37253;48.736;9.294;2023-01-01T10:18:28;17.42;;;14.38;;
51190;SDS011;37253;48.736;9.294;2023-01-01T10:20:34;16.83;;;14.43;;
51190;SDS011;37253;48.736;9.294;2023-01-01T10:22:39;17.73;;;14.55;;
51190;SDS011;37253;48.736;9.294;2023-01-01T10:24:42;19.08;;;14.88;;
51190;SDS011;37253;48.736;9.294;2023-01-01T10:31:37;18.33;;;15.68;;
51190;SDS011;37253;48.736;9.294;2023-01-01T10:33:33;16.23;;;14.57;;
51190;SDS011;37253;48.736;9.294;2023-01-01T10:35:34;16.73;;;14.18;;
51190;SDS011;37253;48.736;9.294;2023-01-01T10:37:38;17.65;;;15.45;;
51190;SDS011;37253;48.736;9.294;2023-01-01T10:39:38;16.15;;;14.35;;
51190;SDS011;37253;48.736;9.294;2023-01-01T10:41:39;18.48;;;15.07;;
51190;SDS011;37253;48.736;9.294;2023-01-01T10:43:39;18.85;;;15.45;;
51190;SDS011;37253;48.736;9.294;2023-01-01T10:46:01;16.77;;;14.48;;
51190;SDS011;37253;48.736;9.294;2023-01-01T10:48:17;19.25;;;15.15;;
51190;SDS011;37253;48.736;9.294;2023-01-01T10:50:19;16.95;;;14.95;;
51190;SDS011;37253;48.736;9.294;2023-01-01T10:52:21;20.00;;;15.43;;
51190;SDS011;37253;48.736;9.294;2023-01-01T10:56:39;18.02;;;15.18;;
51190;SDS011;37253;48.736;9.294;2023-01-01T10:58:44;18.58;;;15.35;;
51190;SDS011;37253;48.736;9.294;2023-01-01T11:00:59;19.48;;;16.13;;
51190;SDS011;37253;48.736;9.294;2023-01-01T11:03:19;19.58;;;16.27;;
51190;SDS011;37253;48.736;9.294;2023-01-01T11:05:21;21.42;;;16.23;;
51190;SDS011;37253;48.736;9.294;2023-01-01T11:07:25;18.25;;;16.30;;
51190;SDS011;37253;48.736;9.294;2023-01-01T11:09:28;17.30;;;15.40;;
51190;SDS011;37253;48.736;9.294;2023-01-01T11:11:38;17.95;;;15.95;;
51190;SDS011;37253;48.736;9.294;2023-01-01T11:13:41;19.85;;;16.08;;
51190;SDS011;37253;48.736;9.294;2023-01-01T11:15:41;18.50;;;15.68;;
51190;SDS011;37253;48.736;9.294;2023-01-01T11:17:41;19.30;;;15.57;;
51190;SDS011;37253;48.736;9.294;2023-01-01T11:19:42;19.58;;;16.48;;
51190;SDS011;37253;48.736;9.294;2023-01-01T11:21:45;21.95;;;17.33;;
51190;SDS011;37253;48.736;9.294;2023-01-01T11:23:46;18.20;;;16.17;;
51190;SDS011;37253;48.736;9.294;2023-01-01T11:26:01;20.55;;;16.45;;
51190;SDS011;37253;48.736;9.294;2023-01-01T11:28:17;20.65;;;15.38;;
51190;SDS011;37253;48.736;9.294;2023-01-01T11:30:20;21.05;;;16.88;;
51190;SDS011;37253;48.736;9.294;2023-01-01T11:32:26;21.00;;;17.15;;
51190;SDS011;37253;48.736;9.294;2023-01-01T11:34:31;20.40;;;17.02;;
51190;SDS011;37253;48.736;9.294;2023-01-01T11:36:33;20.13;;;16.60;;
51190;SDS011;37253;48.736;9.294;2023-01-01T11:38:34;18.58;;;15.68;;
51190;SDS011;37253;48.736;9.294;2023-01-01T11:40:35;21.13;;;16.65;;
51190;SDS011;37253;48.736;9.294;2023-01-01T11:42:36;19.48;;;16.48;;
51190;SDS011;37253;48.736;9.294;2023-01-01T11:44:45;17.98;;;16.08;;
51190;SDS011;37253;48.736;9.294;2023-01-01T11:46:48;20.77;;;16.95;;
51190;SDS011;37253;48.736;9.294;2023-01-01T11:48:49;21.27;;;17.48;;
51190;SDS011;37253;48.736;9.294;2023-01-01T11:50:50;20.85;;;16.45;;
51190;SDS011;37253;48.736;9.294;2023-01-01T11:52:52;19.85;;;16.65;;
51190;SDS011;37253;48.736;9.294;2023-01-01T11:55:01;21.20;;;16.05;;
51190;SDS011;37253;48.736;9.294;2023-01-01T11:57:06;19.35;;;16.00;;
51190;SDS011;37253;48.736;9.294;2023-01-01T11:59:13;19.35;;;16.92;;
51190;SDS011;37253;48.736;9.294;2023-01-01T12:05:23;20.48;;;15.93;;
51190;SDS011;37253;48.736;9.294;2023-01-01T12:07:29;19.08;;;16.23;;
51190;SDS011;37253;48.736;9.294;2023-01-01T12:14:16;19.98;;;15.95;;
51190;SDS011;37253;48.736;9.294;2023-01-01T12:16:23;17.23;;;15.30;;
51190;SDS011;37253;48.736;9.294;2023-01-01T12:18:43;21.75;;;15.50;;
51190;SDS011;37253;48.736;9.294;2023-01-01T12:20:56;18.48;;;15.23;;
51190;SDS011;37253;48.736;9.294;2023-01-01T12:23:01;18.95;;;15.82;;
51190;SDS011;37253;48.736;9.294;2023-01-01T12:25:02;20.67;;;15.80;;
51190;SDS011;37253;48.736;9.294;2023-01-01T12:27:08;19.45;;;15.63;;
51190;SDS011;37253;48.736;9.294;2023-01-01T12:29:36;20.20;;;15.35;;
51190;SDS011;37253;48.736;9.294;2023-01-01T12:32:20;19.60;;;15.93;;
51190;SDS011;37253;48.736;9.294;2023-01-01T12:34:32;19.48;;;15.50;;
51190;SDS011;37253;48.736;9.294;2023-01-01T12:39:05;20.48;;;15.90;;
51190;SDS011;37253;48.736;9.294;2023-01-01T12:48:51;16.33;;;14.50;;
51190;SDS011;37253;48.736;9.294;2023-01-01T12:58:23;17.63;;;14.20;;
51190;SDS011;37253;48.736;9.294;2023-01-01T13:00:20;16.20;;;13.80;;
51190;SDS011;37253;48.736;9.294;2023-01-01T13:02:22;21.25;;;14.30;;
51190;SDS011;37253;48.736;9.294;2023-01-01T13:04:24;16.60;;;13.23;;
51190;SDS011;37253;48.736;9.294;2023-01-01T13:06:43;17.38;;;13.70;;
51190;SDS011;37253;48.736;9.294;2023-01-01T13:08:48;16.98;;;13.57;;
51190;SDS011;37253;48.736;9.294;2023-01-01T13:10:51;19.30;;;13.88;;
51190;SDS011;37253;48.736;9.294;2023-01-01T13:12:53;16.48;;;13.70;;
51190;SDS011;37253;48.736;9.294;2023-01-01T13:14:55;17.10;;;13.43;;
51190;SDS011;37253;48.736;9.294;2023-01-01T13:16:55;14.98;;;13.15;;
51190;SDS011;37253;48.736;9.294;2023-01-01T13:18:56;15.77;;;12.77;;
51190;SDS011;37253;48.736;9.294;2023-01-01T13:20:58;17.83;;;13.15;;
51190;SDS011;37253;48.736;9.294;2023-01-01T13:23:00;15.02;;;12.13;;